Airfield :
LOGIN :

Register | Disclaimer

   EN    FR    IT 

 










Legend :    VFR   Marginal VFR   IFR   Intensive IFR   Very Intensive IFR
Visi :
Ceiling :
>= 8 km
>= 3000ft
5 to 8 km
1000 to 3000 ft
1500m to 5 km
500 to 1000 ft
800 to 1500m
200 to 500 ft
< 800m
< 200 ft
Symbols :   Thunderstorms  Fog  Heavy snow  Heavy precipitations  Wind > 20 kt
SIGMETs :     Misc.  Thunderstorms  Icing  Turbulence  Mountain Waves  Volcanic Ashes






- Airport Elevation : 286 ft
- IATA code : TRF


ENTO - Sandefjord , Torp

CURRENT METAR :
  • 180520Z 24004KT 0250 R18/1600D R36/0700D FG VV002 06/06 Q1007 TEMPO 0500 FG VV001

EXPIRED METARs :
  • 180450Z 22004KT 200V260 0400 R18/P2000N R36/1300U FG VV002 06/06 Q1007 TEMPO 0700 FG
  • 180420Z 22004KT 0600 R18/P2000N R36/P2000D FG VV002 07/07 Q1007 TEMPO 2000 BCFG
  • 180320Z AUTO 23005KT 8000 OVC001/// 07/07 Q1007
  • 180250Z AUTO 24003KT 180V280 0250 R18/P2000N R36/0900N FG OVC001/// 07/07 Q1006

TAF AMD TAF ENTO
Valid from the 18 at 03:00 until the 19 at 00:00 UTC


180337Z 1803/1824 VRB06KT 8000 BKN003
PROB40 1803/1809 0300 FG VV002
BECMG 1810/1812 SCT008 BKN015
BECMG 1818/1820 03010KT 4000 -RA BR BKN005
TEMPO 1820/1824 1500 DZ BR BKN003



MET'MAP, your aeronautical weather chart ! - Copyright ORBIFLY December 2007 - Disclaimer

ORBIFLY MET'MAP TEAM :

Programming & Development : Alexandra Zaïnal
Concept & Development : Baudouin d'Aumeries
Co-Development & Prog : Marc-Olivier Méhu
Technical & hardware support : Manuel Goepfert

Contact : metmap@orbifly.com




SOURCES & CREDITS :

   NOAA